• Join FlightAware (Why Join?)
  • Login
  • US Flag 
04:10AM EST


 

Airport Tracker/Info


-or-


 

Live Flight TrackerFlight Track Log ✈ SWA3924 ✈ 05-May-2013 ✈ KMCO - KBNA

Flight Track Log - Related Links

Times and Time Zones

All times are in EDT time to prevent confusion due to time zone crossing. See the SWA3924 flight status page for this flight to view local times or setup timezone preferences in your user account.

Time Position Orientation Groundspeed Altitude Reporting Facility
EDT Latitude Longitude Course Direction KTS MPH feet Rate Location/Type
01:30PM 28.4333 -81.3000 360° North 149 171 500  Level Orlando TRACON
01:31PM 28.4667 -81.3000 360° North 186 214 1,800 2,340 Climbing Orlando TRACON
01:32PM 28.5167 -81.3167 344° North 220 253 4,500 2,760 Climbing Orlando TRACON
01:33PM 28.5667 -81.3500 330° Northwest 265 305 7,400 1,620 Climbing Orlando TRACON
01:34PM 28.5833 -81.4333 283° West 254 292 8,000 1,380 Climbing Orlando TRACON
01:35PM 28.5667 -81.5167 257° West 261 300 10,400 2,520 Climbing Orlando TRACON
01:36PM 28.5614 -81.6753 268° West 331 381 14,400 2,160 Climbing Jacksonville Center
01:37PM 28.5542 -81.7817 266° West 336 387 15,900 1,740 Climbing Jacksonville Center
01:38PM 28.5508 -81.8858 268° West 341 392 17,900 2,460 Climbing Jacksonville Center
01:39PM 28.5433 -82.0017 266° West 351 404 20,900 2,820 Climbing Jacksonville Center
01:40PM 28.5378 -82.1150 267° West 358 412 23,600 2,400 Climbing Jacksonville Center
01:41PM 28.5322 -82.2333 267° West 370 426 25,800 1,500 Climbing Jacksonville Center
01:42PM 28.5286 -82.3561 268° West 383 441 26,600 840 Climbing Jacksonville Center
01:43PM 28.5500 -82.4742 282° West 379 436 27,500 1,200 Climbing Jacksonville Center
01:44PM 28.6378 -82.5686 317° Northwest 379 436 29,100 1,740 Climbing Jacksonville Center
01:45PM 28.7297 -82.6511 322° Northwest 398 458 31,000 2,100 Climbing Jacksonville Center
01:46PM 28.8489 -82.6933 343° North 410 472 33,300 1,980 Climbing Jacksonville Center
01:47PM 28.9639 -82.7336 343° North 421 484 35,000 1,500 Climbing Jacksonville Center
01:48PM 29.0806 -82.7739 343° North 427 491 36,400 1,200 Climbing Jacksonville Center
01:49PM 29.1956 -82.8142 343° North 432 497 37,500 780 Climbing Jacksonville Center
01:50PM 29.3125 -82.8569 342° North 438 504 38,000 240 Climbing Jacksonville Center
01:51PM 29.4294 -82.8950 344° North 438 504 38,000  Level Jacksonville Center
01:52PM 29.5378 -82.9356 342° North 443 510 38,000  Level Jacksonville Center
01:53PM 29.6569 -82.9786 343° North 443 510 38,000  Level Jacksonville Center
01:54PM 29.7736 -83.0194 343° North 443 510 38,000  Level Jacksonville Center
01:55PM 29.8906 -83.0603 343° North 443 510 38,000  Level Jacksonville Center
01:56PM 30.0075 -83.1014 343° North 438 504 38,000  Level Jacksonville Center
01:57PM 30.1264 -83.1400 344° North 443 510 38,000  Level Jacksonville Center
01:58PM 30.2433 -83.1811 343° North 443 510 38,000  Level Jacksonville Center
01:59PM 30.3600 -83.2247 342° North 443 510 38,000  Level Jacksonville Center
02:00PM 30.4769 -83.2639 344° North 443 510 38,000  Level Jacksonville Center
02:01PM 30.5917 -83.3053 343° North 443 510 38,000  Level Jacksonville Center
02:02PM 30.7083 -83.3492 342° North 438 504 38,000  Level Jacksonville Center
02:03PM 30.8333 -83.3958 342° North 438 504 38,000  Level Jacksonville Center
02:04PM 30.9378 -83.4328 343° North 432 497 38,000  Level Jacksonville Center
02:05PM 31.0503 -83.4722 343° North 432 497 38,000  Level Jacksonville Center
02:06PM 31.1669 -83.5167 342° North 432 497 38,000  Level Jacksonville Center
02:08PM 31.4433 -83.6178 343° North 447 514 38,000  Level Atlanta Center
02:09PM 31.5603 -83.6586 343° North 441 507 38,000  Level Atlanta Center
02:10PM 31.6897 -83.7094 342° North 441 507 38,000  Level Atlanta Center
02:11PM 31.8089 -83.7531 343° North 441 507 38,000  Level Atlanta Center
02:12PM 31.9197 -83.7917 344° North 457 526 38,000  Level Atlanta Center
02:13PM 32.0344 -83.8356 342° North 451 519 38,000  Level Atlanta Center
02:14PM 32.1514 -83.8769 343° North 445 512 38,000  Level Atlanta Center
02:15PM 32.2706 -83.9233 342° North 445 512 38,000  Level Atlanta Center
02:16PM 32.3894 -83.9650 344° North 445 512 38,000  Level Atlanta Center
02:17PM 32.5083 -84.0117 342° North 445 512 38,000  Level Atlanta Center
02:18PM 32.6294 -84.0586 342° North 445 512 38,000  Level Atlanta Center
02:19PM 32.7486 -84.1031 343° North 445 512 38,000  Level Atlanta Center
02:20PM 32.8717 -84.1478 343° North 445 512 38,000  Level Atlanta Center
02:21PM 32.9925 -84.1972 341° North 445 512 38,000  Level Atlanta Center
02:22PM 33.1136 -84.2397 344° North 445 512 38,000  Level Atlanta Center
02:23PM 33.2367 -84.2872 342° North 456 525 38,000  Level Atlanta Center
02:24PM 33.3744 -84.3397 342° North 463 533 38,000  Level Atlanta Center
02:25PM 33.4972 -84.3875 342° North 463 533 38,000  Level Atlanta Center
02:26PM 33.6183 -84.4356 342° North 454 522 38,000  Level Atlanta Center
02:27PM 33.7350 -84.4858 340° North 447 514 38,000  Level Atlanta Center
02:28PM 33.8600 -84.5392 340° North 453 521 38,000  Level Atlanta Center
02:29PM 33.9831 -84.5925 340° North 460 529 38,000 -180 Level Atlanta Center
02:30PM 34.1058 -84.6483 339° North 466 536 37,700 -600 Descending Atlanta Center
02:31PM 34.2203 -84.6969 341° North 466 536 36,900 -900 Descending Atlanta Center
02:32PM 34.3306 -84.7683 332° Northwest 452 520 35,900 -1,020 Descending Atlanta Center
02:33PM 34.4511 -84.8600 328° Northwest 458 527 34,900 -960 Descending Atlanta Center
02:34PM 34.5672 -84.9469 328° Northwest 475 547 34,000 -900 Descending Atlanta Center
02:35PM 34.6564 -85.0161 327° Northwest 483 556 33,200 -1,380 Descending Atlanta Center
02:37PM 34.8572 -85.1742 327° Northwest 462 532 30,200 -1,920 Descending Memphis Center
02:38PM 34.9714 -85.2583 329° Northwest 472 543 27,900 -2,220 Descending Memphis Center
02:39PM 35.0769 -85.3433 327° Northwest 467 537 25,800 -1,980 Descending Memphis Center
02:40PM 35.1764 -85.4289 325° Northwest 462 532 24,000 -1,560 Descending Memphis Center
02:41PM 35.2600 -85.5358 314° West 439 505 22,700 -1,860 Descending Memphis Center
02:42PM 35.3411 -85.6381 314° West 427 491 20,300 -2,400 Descending Memphis Center
02:43PM 35.4200 -85.7406 313° West 420 483 18,000 -2,400 Descending Memphis Center
02:44PM 35.4989 -85.8433 313° West 415 478 15,600 -2,280 Descending Memphis Center
02:45PM 35.5731 -85.9389 314° West 409 471 13,500 -2,100 Descending Memphis Center
02:46PM 35.6453 -86.0372 312° West 397 457 11,500 -1,680 Descending Memphis Center
02:47PM 35.7131 -86.1256 313° West 374 430 10,200 -1,320 Descending Memphis Center
02:48PM 35.7681 -86.2097 309° West 340 391 8,900 -1,200 Descending Memphis Center
02:49PM 35.8003 -86.3028 293° West 303 349 7,900 -1,200 Descending Memphis Center
02:50PM 35.8328 -86.4011 292° West 290 334 6,500 -1,200 Descending Memphis Center
02:51PM 35.8625 -86.4867 293° West 284 327 5,600 -1,140 Descending Memphis Center
02:52PM 35.8900 -86.5675 293° West 267 307 4,300 -1,200 Descending Memphis Center
02:53PM 35.9175 -86.6508 292° West 262 302 3,300 -900 Descending Memphis Center
02:54PM 35.9589 -86.7053 313° West 227 261 2,500 -480 Descending Memphis Center
02:55PM 36.0111 -86.7106 355° North 180 207 2,400 -420 Descending Memphis Center
02:56PM 36.0564 -86.6906 20° North 174 200 1,700 -720 Descending Memphis Center
02:57PM 36.0936 -86.6761 17° North 152 175 1,000 -600 Descending Memphis Center
02:58PM 36.1328 -86.6617 17° North 140 161 600 -420 Descending Memphis Center
03:00PM 36.1167 -86.6667 345° North  Level FlightAware Approximate
03:07PM 36.1245 -86.6782 345° North  Level Estimated
03:08PM 36.1245 -86.6782 345° North  Level Estimated
03:09PM 36.1245 -86.6782 345° North  Level Estimated
03:10PM 36.1245 -86.6782 345° North  Level Estimated
03:11PM 36.1245 -86.6782 345° North  Level Estimated
03:12PM 36.1245 -86.6782 345° North  Level Estimated
03:13PM 36.1245 -86.6782 345° North  Level Estimated
03:14PM 36.1245 -86.6782 345° North  Level Estimated